Graniteville, South Carolina
Current Conditions -  °F | °C
As of 2:55 PM on Friday 31 Oct 2014 (Local Time) from KAIK Reporting Station
Clear Clear  
Wind Chill: 64°   Ceiling: Unl
Heat Index: 64°   Visibility: 10mi
Dew Point: 48°   Wind: 0mph
Humidity: 56%   Direction: NA
Pressure: 29.85"   Gusts: NA
Location:  33.57°N, 81.81°W
Report Text: KAIK 311855Z AUTO 00000KT 10SM CLR 18/09 A2985 RMK AO2 PNO
Loading
Personal Weather Stations






























Interactive Weather Map
Tropical Storm Tracking
New forecast layout! Learn more

10-Day Weather Forecast

Advertisements
Track Severe Weather on mobile